Time;durP1;ratioP1;P1;durP2;ratioP2;P2;SDS_P1;SDS_P2;PMS_P1;PMS_P2;Temp;Humidity;BMP_temperature;BMP_pressure;BME280_temperature;BME280_humidity;BME280_pressure;Samples;Min_cycle;Max_cycle;Signal;HPM_P1;HPM_P2
2023/05/08 00:01:30;;;;;;;8.67;7.87;;;14.60;99.90;;;;;;5098735;28;20518;-59
2023/05/08 00:03:58;;;;;;;7.80;7.10;;;14.60;99.90;;;;;;5098840;28;20499;-60
2023/05/08 00:06:26;;;;;;;8.30;7.50;;;14.50;99.90;;;;;;5098611;28;20436;-60
2023/05/08 00:08:55;;;;;;;8.10;7.30;;;14.50;99.90;;;;;;5099132;28;20479;-58
2023/05/08 00:11:22;;;;;;;8.10;6.73;;;14.50;99.90;;;;;;5098829;28;20467;-60
2023/05/08 00:13:49;;;;;;;8.00;7.30;;;14.50;99.90;;;;;;5098594;28;20464;-60
2023/05/08 00:16:16;;;;;;;8.10;7.20;;;14.50;99.90;;;;;;5098713;28;20460;-60
2023/05/08 00:18:44;;;;;;;8.07;7.27;;;14.40;99.90;;;;;;5098656;28;20468;-59
2023/05/08 00:21:11;;;;;;;8.60;7.70;;;14.40;99.90;;;;;;5098507;28;20460;-60
2023/05/08 00:23:38;;;;;;;8.80;8.00;;;14.40;99.90;;;;;;5098423;28;20955;-60
2023/05/08 00:26:07;;;;;;;8.80;8.00;;;14.40;99.90;;;;;;5098247;28;20435;-60
2023/05/08 00:28:34;;;;;;;8.73;7.93;;;14.40;99.90;;;;;;5098510;28;20529;-60
2023/05/08 00:31:02;;;;;;;8.43;7.50;;;14.40;99.90;;;;;;5098012;28;20591;-60
2023/05/08 00:33:29;;;;;;;8.10;7.40;;;14.40;99.90;;;;;;5098472;28;20877;-60
2023/05/08 00:36:00;;;;;;;9.57;7.23;;;14.40;99.90;;;;;;5098249;28;20461;-60
2023/05/08 00:38:29;;;;;;;8.90;8.10;;;14.40;99.90;;;;;;5090185;28;20471;-60
2023/05/08 00:40:57;;;;;;;8.40;7.10;;;14.30;99.90;;;;;;5098249;28;20464;-60
2023/05/08 00:43:27;;;;;;;9.37;7.30;;;14.20;99.90;;;;;;5097873;28;20548;-60
2023/05/08 00:45:55;;;;;;;9.27;8.17;;;14.20;99.90;;;;;;5098464;28;20490;-60
2023/05/08 00:48:24;;;;;;;7.80;7.10;;;14.30;99.90;;;;;;5098279;28;20460;-60
2023/05/08 00:50:53;;;;;;;9.70;8.80;;;14.30;99.90;;;;;;5098049;28;20754;-60
2023/05/08 00:53:22;;;;;;;9.43;8.13;;;14.30;99.90;;;;;;5097493;28;20464;-60
2023/05/08 00:55:51;;;;;;;9.13;8.23;;;14.30;99.90;;;;;;5097841;28;20844;-60
2023/05/08 00:58:19;;;;;;;9.03;8.13;;;14.30;99.90;;;;;;5097778;28;20460;-60
2023/05/08 01:00:48;;;;;;;8.60;7.53;;;14.30;99.90;;;;;;5097468;28;20472;-60
2023/05/08 01:03:15;;;;;;;8.37;7.60;;;14.40;99.90;;;;;;5097605;28;20492;-60
2023/05/08 01:05:44;;;;;;;9.87;8.90;;;14.40;99.90;;;;;;5097533;28;20797;-60
2023/05/08 01:08:11;;;;;;;9.37;8.40;;;14.30;99.90;;;;;;5097872;28;20438;-60
2023/05/08 01:10:46;;;;;;;9.40;8.60;;;14.30;99.90;;;;;;5097455;28;20430;-60
2023/05/08 01:13:22;;;;;;;7.57;6.97;;;14.30;99.90;;;;;;5097743;28;20462;-60
2023/05/08 01:15:56;;;;;;;8.17;7.37;;;14.30;99.90;;;;;;5098026;28;20456;-60
2023/05/08 01:18:33;;;;;;;10.07;8.50;;;14.20;99.90;;;;;;5097943;28;20443;-60
2023/05/08 01:21:08;;;;;;;8.50;7.70;;;14.20;99.90;;;;;;5097635;28;20463;-60
2023/05/08 01:24:09;;;;;;;9.87;9.07;;;14.20;99.90;;;;;;5097697;28;20491;-60
2023/05/08 01:26:58;;;;;;;8.90;8.10;;;14.20;99.90;;;;;;5034439;28;20472;-60
2023/05/08 01:30:01;;;;;;;9.80;8.90;;;14.20;99.90;;;;;;5094051;28;20490;-60
2023/05/08 01:32:35;;;;;;;9.30;8.50;;;14.20;99.90;;;;;;5097059;28;20551;-60
2023/05/08 01:35:12;;;;;;;9.00;8.20;;;14.20;99.90;;;;;;5097311;28;20622;-59
2023/05/08 01:37:42;;;;;;;9.27;8.27;;;14.20;99.90;;;;;;5097337;28;20496;-56
2023/05/08 01:40:18;;;;;;;9.27;8.40;;;14.20;99.90;;;;;;5097674;28;20551;-58
2023/05/08 01:42:50;;;;;;;7.93;7.23;;;14.20;99.90;;;;;;5096838;28;20579;-59
2023/05/08 01:45:25;;;;;;;10.23;8.60;;;14.10;99.90;;;;;;5097589;28;20562;-60
2023/05/08 01:48:03;;;;;;;8.73;7.83;;;14.10;99.90;;;;;;5097756;28;20559;-59
2023/05/08 01:50:36;;;;;;;11.03;9.17;;;14.10;99.90;;;;;;5096986;28;20555;-59
2023/05/08 01:53:09;;;;;;;8.93;8.13;;;14.10;99.90;;;;;;5097149;28;20463;-59
2023/05/08 01:55:38;;;;;;;10.90;9.40;;;14.00;99.90;;;;;;5097356;28;20565;-60
2023/05/08 01:58:11;;;;;;;9.93;9.00;;;14.10;99.90;;;;;;5097160;28;20456;-60
2023/05/08 02:00:40;;;;;;;13.53;11.40;;;14.00;99.90;;;;;;5096962;28;20439;-59
2023/05/08 02:03:12;;;;;;;12.27;11.17;;;14.00;99.90;;;;;;5096759;28;20535;-59
2023/05/08 02:05:40;;;;;;;12.10;11.00;;;14.00;99.90;;;;;;5097497;28;20431;-56
2023/05/08 02:08:09;;;;;;;11.27;10.17;;;14.00;99.90;;;;;;5099226;28;20555;-59
2023/05/08 02:10:38;;;;;;;10.37;9.43;;;14.00;99.90;;;;;;5085164;28;20432;-60
2023/05/08 02:13:07;;;;;;;9.70;8.70;;;14.00;99.90;;;;;;5080801;28;20538;-59
2023/05/08 02:15:35;;;;;;;9.03;8.23;;;13.90;99.90;;;;;;5080998;28;20968;-59
2023/05/08 02:18:05;;;;;;;10.00;9.10;;;13.90;99.90;;;;;;5080889;28;20463;-60
2023/05/08 02:20:34;;;;;;;9.47;8.67;;;13.90;99.90;;;;;;5080554;28;20552;-59
2023/05/08 02:23:03;;;;;;;8.90;7.60;;;14.00;99.90;;;;;;5080597;28;20495;-59
2023/05/08 02:25:32;;;;;;;9.67;8.73;;;13.90;99.90;;;;;;5080565;28;20497;-58
2023/05/08 02:27:59;;;;;;;10.30;9.40;;;14.00;99.90;;;;;;5080644;28;20845;-57
2023/05/08 02:30:27;;;;;;;10.00;9.00;;;14.00;99.90;;;;;;5084566;28;20771;-57
2023/05/08 02:32:57;;;;;;;12.23;9.03;;;14.00;99.90;;;;;;5100527;28;20956;-57
2023/05/08 02:35:25;;;;;;;10.20;9.20;;;14.00;99.90;;;;;;5100690;28;20546;-58
2023/05/08 02:37:56;;;;;;;10.23;8.90;;;14.00;99.90;;;;;;5100904;28;20464;-59
2023/05/08 02:40:27;;;;;;;9.13;8.33;;;14.00;99.90;;;;;;5100764;28;20871;-59
2023/05/08 02:42:55;;;;;;;9.90;9.00;;;14.00;99.90;;;;;;5100396;28;20484;-59
2023/05/08 02:45:26;;;;;;;9.57;8.67;;;14.00;99.90;;;;;;5100419;28;20453;-59
2023/05/08 02:48:07;;;;;;;10.40;9.50;;;14.00;99.90;;;;;;5100118;28;20427;-59
2023/05/08 02:50:41;;;;;;;9.53;8.73;;;13.90;99.90;;;;;;5100511;28;20456;-59
2023/05/08 02:53:15;;;;;;;9.73;8.63;;;13.90;99.90;;;;;;5100049;28;20452;-59
2023/05/08 02:55:49;;;;;;;11.30;10.20;;;13.90;99.90;;;;;;5100396;28;20902;-56
2023/05/08 02:58:22;;;;;;;11.00;9.93;;;13.90;99.90;;;;;;5099833;28;20460;-59
2023/05/08 03:00:58;;;;;;;11.27;10.17;;;13.90;99.90;;;;;;5100105;28;20435;-59
2023/05/08 03:03:31;;;;;;;10.87;9.77;;;14.00;99.90;;;;;;5099931;28;20585;-59
2023/05/08 03:06:02;;;;;;;10.77;9.10;;;13.90;99.90;;;;;;5100360;28;20759;-59
2023/05/08 03:08:34;;;;;;;14.63;9.80;;;13.90;99.90;;;;;;5100204;28;20751;-59
2023/05/08 03:11:05;;;;;;;10.43;9.33;;;13.90;99.90;;;;;;5100197;28;20466;-56
2023/05/08 03:13:35;;;;;;;10.57;9.50;;;13.90;99.90;;;;;;5100024;28;20505;-59
2023/05/08 03:16:05;;;;;;;10.53;9.63;;;13.90;99.90;;;;;;5099888;28;20559;-59
2023/05/08 03:18:36;;;;;;;10.80;9.87;;;14.00;99.90;;;;;;5099180;28;20499;-57
2023/05/08 03:21:05;;;;;;;10.90;9.80;;;14.00;99.90;;;;;;5099247;28;20460;-59
2023/05/08 03:23:37;;;;;;;11.13;10.13;;;14.00;99.90;;;;;;5099639;28;20492;-57
2023/05/08 03:26:05;;;;;;;12.33;11.17;;;14.00;99.90;;;;;;5099028;28;20831;-57
2023/05/08 03:28:35;;;;;;;11.20;10.20;;;14.00;99.90;;;;;;5097781;28;20513;-58
2023/05/08 03:31:05;;;;;;;11.10;10.10;;;14.00;99.90;;;;;;5091806;28;20967;-59
2023/05/08 03:33:33;;;;;;;10.93;9.93;;;14.00;99.90;;;;;;5079340;28;20450;-58
2023/05/08 03:36:03;;;;;;;13.20;12.00;;;13.90;99.90;;;;;;5057819;28;20450;-58
2023/05/08 03:38:31;;;;;;;12.00;10.83;;;14.00;99.90;;;;;;5057298;28;20705;-59
2023/05/08 03:40:59;;;;;;;12.40;11.10;;;14.00;99.90;;;;;;5057481;28;20462;-59
2023/05/08 03:43:28;;;;;;;14.20;11.60;;;14.00;99.90;;;;;;5057137;28;20954;-59
2023/05/08 03:45:56;;;;;;;10.90;9.80;;;13.90;99.90;;;;;;5057511;28;20433;-59
2023/05/08 03:48:24;;;;;;;12.20;11.00;;;14.00;99.90;;;;;;5057403;28;20484;-59
2023/05/08 03:50:52;;;;;;;12.37;11.10;;;14.00;99.90;;;;;;5058074;28;20548;-59
2023/05/08 03:53:19;;;;;;;13.03;11.37;;;13.90;99.90;;;;;;5072617;28;20819;-59
2023/05/08 03:55:46;;;;;;;12.30;10.83;;;13.90;99.90;;;;;;5077112;28;20829;-59
2023/05/08 03:58:21;;;;;;;11.30;10.20;;;13.90;99.90;;;;;;5074800;28;20767;-59
2023/05/08 04:01:01;;;;;;;11.20;10.00;;;13.80;99.90;;;;;;5076713;28;20468;-59
2023/05/08 04:03:42;;;;;;;11.80;10.57;;;13.80;99.90;;;;;;5073497;28;20489;-59
2023/05/08 04:06:17;;;;;;;12.70;11.50;;;13.90;99.90;;;;;;5056258;28;20533;-58
2023/05/08 04:08:54;;;;;;;13.13;10.67;;;13.80;99.90;;;;;;5055502;28;20526;-60
2023/05/08 04:11:29;;;;;;;15.13;10.90;;;13.70;99.90;;;;;;5074301;28;20461;-59
2023/05/08 04:14:03;;;;;;;12.57;11.10;;;13.70;99.90;;;;;;5076716;28;20481;-58
2023/05/08 04:16:37;;;;;;;11.17;10.13;;;13.70;99.90;;;;;;5075020;28;20519;-60
2023/05/08 04:19:10;;;;;;;11.03;10.00;;;13.70;99.90;;;;;;5076590;28;20507;-59
2023/05/08 04:21:42;;;;;;;12.37;11.17;;;13.70;99.90;;;;;;5077020;28;20508;-58
2023/05/08 04:24:15;;;;;;;12.30;11.10;;;13.60;99.90;;;;;;5076747;28;20933;-59
2023/05/08 04:26:44;;;;;;;12.83;11.70;;;13.60;99.90;;;;;;5076001;28;20548;-59
2023/05/08 04:29:13;;;;;;;13.20;12.10;;;13.60;99.90;;;;;;5076366;28;20742;-60
2023/05/08 04:31:42;;;;;;;14.23;12.13;;;13.60;99.90;;;;;;5075901;28;20481;-60
2023/05/08 04:34:09;;;;;;;13.40;12.10;;;13.70;99.90;;;;;;5075905;28;20481;-57
2023/05/08 04:36:37;;;;;;;14.13;12.73;;;13.60;99.90;;;;;;5075331;28;20870;-58
2023/05/08 04:39:04;;;;;;;13.80;12.47;;;13.70;99.90;;;;;;5075370;28;20514;-59
2023/05/08 04:41:31;;;;;;;12.60;11.30;;;13.70;99.90;;;;;;5076104;28;20791;-55
2023/05/08 04:43:59;;;;;;;13.33;12.03;;;13.70;99.90;;;;;;5076876;28;20821;-58
2023/05/08 04:46:30;;;;;;;12.90;11.60;;;13.70;99.90;;;;;;5077593;28;20487;-58
2023/05/08 04:48:57;;;;;;;14.73;13.37;;;13.70;99.90;;;;;;5077703;28;20443;-57
2023/05/08 04:51:25;;;;;;;12.97;11.77;;;13.80;99.90;;;;;;5077616;28;20561;-58
2023/05/08 04:53:52;;;;;;;13.97;12.50;;;13.80;99.90;;;;;;5077452;28;20461;-57
2023/05/08 04:56:19;;;;;;;14.23;11.80;;;13.80;99.90;;;;;;5077546;28;20556;-59
2023/05/08 04:58:46;;;;;;;14.13;12.67;;;13.80;99.90;;;;;;5077353;28;21024;-55
2023/05/08 05:01:14;;;;;;;12.83;11.53;;;13.90;99.90;;;;;;5076027;28;20489;-59
2023/05/08 05:03:42;;;;;;;12.67;11.47;;;13.90;99.90;;;;;;5076453;28;20583;-57
2023/05/08 05:06:09;;;;;;;14.60;13.20;;;13.90;99.90;;;;;;5076518;28;20552;-55
2023/05/08 05:08:37;;;;;;;13.80;12.50;;;13.90;99.90;;;;;;5077035;28;20898;-60
2023/05/08 05:11:04;;;;;;;14.47;13.07;;;14.00;99.90;;;;;;5076553;28;20911;-58
2023/05/08 05:13:32;;;;;;;15.87;14.30;;;14.00;99.90;;;;;;5077219;28;20471;-58
2023/05/08 05:16:02;;;;;;;15.17;13.67;;;14.00;99.90;;;;;;5076894;28;20475;-57
2023/05/08 05:18:30;;;;;;;14.53;13.10;;;14.10;99.90;;;;;;5076599;28;20474;-56
2023/05/08 05:21:00;;;;;;;14.70;13.10;;;14.10;99.90;;;;;;5077091;28;20556;-58
2023/05/08 05:23:27;;;;;;;14.40;13.10;;;14.20;99.90;;;;;;5073281;28;20465;-58
2023/05/08 05:25:54;;;;;;;18.80;13.90;;;14.10;99.90;;;;;;5077035;28;20552;-58
2023/05/08 05:28:22;;;;;;;14.97;13.63;;;14.20;99.90;;;;;;5077583;28;20563;-55
2023/05/08 05:30:49;;;;;;;14.97;13.67;;;14.30;99.90;;;;;;5076845;28;20563;-55
2023/05/08 05:33:16;;;;;;;14.10;12.77;;;14.30;99.90;;;;;;5076808;28;20461;-60
2023/05/08 05:35:43;;;;;;;13.43;12.10;;;14.30;99.90;;;;;;5076271;28;20788;-60
2023/05/08 05:38:13;;;;;;;14.13;12.57;;;14.30;99.90;;;;;;5075822;28;20459;-60
2023/05/08 05:40:40;;;;;;;15.67;14.17;;;14.40;99.90;;;;;;5073924;28;20926;-60
2023/05/08 05:43:07;;;;;;;16.93;15.23;;;14.40;99.90;;;;;;5073008;28;20464;-59
2023/05/08 05:45:35;;;;;;;13.10;11.90;;;14.40;99.90;;;;;;5075097;28;20467;-60
2023/05/08 05:48:02;;;;;;;14.87;12.90;;;14.40;99.90;;;;;;5076476;28;20468;-60
2023/05/08 05:50:30;;;;;;;13.00;11.70;;;14.50;99.90;;;;;;5076535;28;20736;-60
2023/05/08 05:52:57;;;;;;;13.37;12.07;;;14.50;99.90;;;;;;5076150;28;20469;-60
2023/05/08 05:55:26;;;;;;;14.00;12.60;;;14.50;99.90;;;;;;5076752;28;20625;-60
2023/05/08 05:57:53;;;;;;;13.57;12.17;;;14.50;99.90;;;;;;5076665;28;20548;-60
2023/05/08 06:00:21;;;;;;;14.57;13.13;;;14.50;99.90;;;;;;5077488;28;20912;-60
2023/05/08 06:02:48;;;;;;;13.20;12.07;;;14.50;99.90;;;;;;5077253;28;20461;-60
2023/05/08 06:05:17;;;;;;;13.40;12.13;;;14.40;99.90;;;;;;5076384;28;20575;-60
2023/05/08 06:07:45;;;;;;;13.33;12.13;;;14.40;99.90;;;;;;5075399;28;20733;-60
2023/05/08 06:10:12;;;;;;;13.90;12.60;;;14.40;99.90;;;;;;5075510;28;20491;-59
2023/05/08 06:12:41;;;;;;;14.80;13.40;;;14.50;99.90;;;;;;5075643;28;20945;-60
2023/05/08 06:15:09;;;;;;;14.07;12.77;;;14.60;99.90;;;;;;5076092;28;20464;-60
2023/05/08 06:17:37;;;;;;;13.40;12.20;;;14.60;99.90;;;;;;5076555;28;20487;-60
2023/05/08 06:20:04;;;;;;;15.17;12.90;;;14.70;99.90;;;;;;5077050;28;20495;-60
2023/05/08 06:22:32;;;;;;;15.33;13.80;;;14.80;99.90;;;;;;5076601;28;20789;-60
2023/05/08 06:24:59;;;;;;;13.77;12.40;;;14.80;99.90;;;;;;5076378;28;20474;-60
2023/05/08 06:27:26;;;;;;;14.00;12.70;;;14.80;99.90;;;;;;5076935;28;20575;-60
2023/05/08 06:29:55;;;;;;;13.17;11.87;;;14.90;99.90;;;;;;5076871;28;20461;-60
2023/05/08 06:32:22;;;;;;;12.77;11.47;;;15.00;99.90;;;;;;5097430;28;20462;-60
2023/05/08 06:34:49;;;;;;;12.70;11.50;;;15.00;99.90;;;;;;5096686;28;20431;-60
2023/05/08 06:37:17;;;;;;;13.37;12.03;;;15.00;99.90;;;;;;5078872;28;20527;-60
2023/05/08 06:39:45;;;;;;;12.50;11.40;;;15.10;99.90;;;;;;5076670;28;20883;-60
2023/05/08 06:42:12;;;;;;;12.87;11.63;;;15.20;99.90;;;;;;5076222;28;20472;-60
2023/05/08 06:44:39;;;;;;;12.33;11.23;;;15.20;99.90;;;;;;5076535;28;20831;-59
2023/05/08 06:47:08;;;;;;;13.70;12.50;;;15.20;99.90;;;;;;5076178;28;20436;-60
2023/05/08 06:49:37;;;;;;;13.00;11.70;;;15.20;99.90;;;;;;5076413;28;20464;-60
2023/05/08 06:52:04;;;;;;;13.23;12.03;;;15.10;99.90;;;;;;5076545;28;20603;-60
2023/05/08 06:54:32;;;;;;;11.67;10.50;;;15.00;99.90;;;;;;5078494;28;20541;-60
2023/05/08 06:56:59;;;;;;;13.03;11.83;;;15.00;99.90;;;;;;5079714;28;20440;-60
2023/05/08 06:59:26;;;;;;;14.60;13.30;;;14.90;99.90;;;;;;5079806;28;20436;-59
2023/05/08 07:01:53;;;;;;;13.87;12.07;;;14.80;99.90;;;;;;5080358;28;20530;-60
2023/05/08 07:04:22;;;;;;;12.50;11.40;;;14.80;99.90;;;;;;5079755;28;20596;-60
2023/05/08 07:06:49;;;;;;;13.90;12.50;;;14.80;99.90;;;;;;5079452;28;20465;-60
2023/05/08 07:09:16;;;;;;;12.63;11.50;;;14.90;99.90;;;;;;5084831;28;20456;-60
2023/05/08 07:11:43;;;;;;;13.23;11.93;;;14.90;99.90;;;;;;5087225;28;20465;-61
2023/05/08 07:14:11;;;;;;;12.23;11.10;;;15.00;99.90;;;;;;5076396;28;20540;-61
2023/05/08 07:16:38;;;;;;;12.47;11.27;;;15.00;99.90;;;;;;5074730;28;20458;-61
2023/05/08 07:19:05;;;;;;;11.27;10.27;;;15.20;99.90;;;;;;5077185;28;20454;-61
2023/05/08 07:21:34;;;;;;;12.47;11.23;;;15.30;99.90;;;;;;5076263;28;20536;-61
2023/05/08 07:24:01;;;;;;;12.00;10.90;;;15.40;99.90;;;;;;5076609;28;21129;-61
2023/05/08 07:26:28;;;;;;;12.20;11.00;;;15.40;99.90;;;;;;5075724;28;20551;-61
2023/05/08 07:28:55;;;;;;;12.40;11.30;;;15.50;99.90;;;;;;5076789;28;20458;-61
2023/05/08 07:31:23;;;;;;;12.70;11.60;;;15.60;99.90;;;;;;5080024;28;20481;-62
2023/05/08 07:33:50;;;;;;;11.97;10.87;;;15.70;99.90;;;;;;5077995;28;20545;-62
2023/05/08 07:36:17;;;;;;;12.70;11.60;;;15.80;99.90;;;;;;5076095;28;20686;-62
2023/05/08 07:38:46;;;;;;;10.87;9.87;;;15.90;99.90;;;;;;5078409;28;20454;-62
2023/05/08 07:41:13;;;;;;;11.10;10.10;;;15.90;99.90;;;;;;5077558;28;20485;-62
2023/05/08 07:43:42;;;;;;;11.50;10.30;;;15.90;99.90;;;;;;5077871;28;20545;-63
2023/05/08 07:46:15;;;;;;;10.57;9.60;;;16.10;99.90;;;;;;5077702;28;20576;-63
2023/05/08 07:48:42;;;;;;;10.77;9.77;;;16.10;99.90;;;;;;5078284;28;20457;-63
2023/05/08 07:51:10;;;;;;;11.60;9.80;;;16.30;99.90;;;;;;5078366;28;20461;-63
2023/05/08 07:53:38;;;;;;;10.67;9.67;;;16.30;99.90;;;;;;5078267;28;20523;-63
2023/05/08 07:56:07;;;;;;;9.57;8.77;;;16.40;99.90;;;;;;5078779;28;20457;-64
2023/05/08 07:58:34;;;;;;;8.90;8.17;;;16.50;99.90;;;;;;5077944;28;20465;-64
2023/05/08 08:01:02;;;;;;;9.73;8.83;;;16.60;99.90;;;;;;5077050;28;20747;-63
2023/05/08 08:03:29;;;;;;;9.60;8.70;;;16.80;99.90;;;;;;5076171;28;20465;-63
2023/05/08 08:05:56;;;;;;;8.53;7.83;;;16.80;99.90;;;;;;5076953;28;20484;-63
2023/05/08 08:08:24;;;;;;;8.70;7.90;;;16.60;99.90;;;;;;5077189;28;20497;-63
2023/05/08 08:10:51;;;;;;;9.30;8.40;;;16.50;99.90;;;;;;5076823;28;20599;-63
2023/05/08 08:13:20;;;;;;;8.30;7.53;;;16.60;99.90;;;;;;5077516;28;20777;-63
2023/05/08 08:15:47;;;;;;;8.67;7.87;;;16.60;99.90;;;;;;5077591;28;20755;-63
2023/05/08 08:18:14;;;;;;;7.60;6.77;;;16.70;99.90;;;;;;5076593;28;20889;-63
2023/05/08 08:20:41;;;;;;;7.13;6.53;;;16.60;99.90;;;;;;5074943;28;20461;-63
2023/05/08 08:23:08;;;;;;;6.77;6.17;;;16.50;99.90;;;;;;5075454;28;20472;-63
2023/05/08 08:25:36;;;;;;;7.60;7.00;;;16.40;99.90;;;;;;5075295;28;20521;-63
2023/05/08 08:28:03;;;;;;;8.40;7.60;;;16.40;99.90;;;;;;5075237;28;20450;-63
2023/05/08 08:30:31;;;;;;;8.47;7.67;;;16.40;99.90;;;;;;5073558;28;20906;-63
2023/05/08 08:33:01;;;;;;;7.90;7.20;;;16.40;99.90;;;;;;5078012;28;20457;-63
2023/05/08 08:35:29;;;;;;;7.87;7.17;;;16.40;99.90;;;;;;5076574;28;20484;-63
2023/05/08 08:37:56;;;;;;;7.87;7.17;;;16.40;99.90;;;;;;5077720;28;20548;-63
2023/05/08 08:40:23;;;;;;;6.93;6.33;;;16.50;99.90;;;;;;5077388;28;20457;-63
2023/05/08 08:42:51;;;;;;;6.87;6.30;;;16.50;99.90;;;;;;5075035;28;20449;-63
2023/05/08 08:45:18;;;;;;;7.50;6.80;;;16.60;99.90;;;;;;5077420;28;20492;-63
2023/05/08 08:47:51;;;;;;;8.80;6.33;;;16.60;99.90;;;;;;5076541;28;20453;-63
2023/05/08 08:50:20;;;;;;;7.67;6.97;;;16.70;99.90;;;;;;5077070;28;20544;-63
2023/05/08 08:52:55;;;;;;;7.10;6.50;;;16.90;99.90;;;;;;5076845;28;20492;-63
2023/05/08 08:55:24;;;;;;;7.60;6.90;;;17.00;99.90;;;;;;5076097;28;20481;-63
2023/05/08 08:57:59;;;;;;;6.87;6.27;;;17.00;99.90;;;;;;5073568;28;20461;-63
2023/05/08 09:00:30;;;;;;;6.60;6.00;;;17.10;99.90;;;;;;5076180;28;20469;-63
2023/05/08 09:02:59;;;;;;;8.10;7.40;;;17.10;99.90;;;;;;5077204;28;20897;-63
2023/05/08 09:05:27;;;;;;;7.10;6.50;;;17.20;99.90;;;;;;5075896;28;20583;-63
2023/05/08 09:07:55;;;;;;;9.23;7.03;;;17.30;1.00;;;;;;5076395;28;20572;-63
2023/05/08 09:10:24;;;;;;;6.97;6.27;;;17.30;1.00;;;;;;5077466;28;20465;-63
2023/05/08 09:12:52;;;;;;;6.30;5.80;;;17.30;1.00;;;;;;5077529;28;20507;-63
2023/05/08 09:15:19;;;;;;;6.50;5.90;;;17.30;99.90;;;;;;5077892;28;21534;-62
2023/05/08 09:17:47;;;;;;;5.93;5.40;;;17.20;99.90;;;;;;5076960;28;20801;-62
2023/05/08 09:20:16;;;;;;;6.20;5.70;;;17.30;71.60;;;;;;5077176;28;20444;-62
2023/05/08 09:22:43;;;;;;;6.40;5.90;;;17.30;1.00;;;;;;5077712;28;20512;-62
2023/05/08 09:25:11;;;;;;;5.80;5.30;;;17.40;99.90;;;;;;5076405;28;20584;-62
2023/05/08 09:27:38;;;;;;;8.20;5.63;;;17.30;99.90;;;;;;5077049;28;20556;-62
2023/05/08 09:30:07;;;;;;;7.20;6.50;;;17.50;99.90;;;;;;5078234;28;20556;-62
2023/05/08 09:32:38;;;;;;;7.87;6.93;;;17.50;99.90;;;;;;5097734;28;20456;-62
2023/05/08 09:35:06;;;;;;;6.53;6.03;;;17.40;1.00;;;;;;5097727;28;20719;-62
2023/05/08 09:37:38;;;;;;;7.20;6.60;;;17.40;1.00;;;;;;5096781;28;20547;-62
2023/05/08 09:40:15;;;;;;;7.23;6.47;;;17.30;1.00;;;;;;5097538;28;20486;-62
2023/05/08 09:42:43;;;;;;;6.97;6.37;;;17.20;18.60;;;;;;5097000;28;20456;-62
2023/05/08 09:45:11;;;;;;;7.17;6.43;;;17.10;1.00;;;;;;5097693;28;20537;-62
2023/05/08 09:47:38;;;;;;;7.07;6.37;;;17.00;99.90;;;;;;5097154;28;21169;-62
2023/05/08 09:50:08;;;;;;;7.17;6.57;;;17.00;99.90;;;;;;5097094;28;20442;-61
2023/05/08 09:52:37;;;;;;;7.50;6.90;;;16.90;1.00;;;;;;5097155;28;20563;-61
2023/05/08 09:55:07;;;;;;;9.30;8.50;;;16.80;99.90;;;;;;5096460;28;20456;-61
2023/05/08 09:57:38;;;;;;;8.33;7.60;;;16.60;99.90;;;;;;5095769;28;20866;-61
2023/05/08 10:00:08;;;;;;;8.17;7.47;;;16.60;1.00;;;;;;5096470;28;20435;-62
2023/05/08 10:02:36;;;;;;;8.20;7.40;;;16.60;1.00;;;;;;5097564;28;20470;-62
2023/05/08 10:05:04;;;;;;;8.43;7.63;;;16.60;3.30;;;;;;5097182;28;20482;-62
2023/05/08 10:07:33;;;;;;;9.90;9.10;;;16.60;99.90;;;;;;5096773;28;20485;-62
2023/05/08 10:10:03;;;;;;;8.57;7.83;;;16.60;99.90;;;;;;5096989;28;20772;-61
2023/05/08 10:12:31;;;;;;;9.80;8.90;;;16.60;99.90;;;;;;5096899;28;20559;-61
2023/05/08 10:14:59;;;;;;;10.77;8.77;;;16.70;5.50;;;;;;5097403;28;20951;-62
2023/05/08 10:17:29;;;;;;;10.77;9.73;;;16.70;1.00;;;;;;5096646;28;20952;-62
2023/05/08 10:20:00;;;;;;;10.17;9.17;;;16.70;1.00;;;;;;5096805;28;20465;-62
2023/05/08 10:22:29;;;;;;;11.03;10.13;;;16.80;1.00;;;;;;5096593;28;20456;-61
2023/05/08 10:24:58;;;;;;;11.03;10.03;;;16.90;99.90;;;;;;5097420;28;20964;-61
2023/05/08 10:27:35;;;;;;;9.40;8.60;;;17.10;99.90;;;;;;5087511;28;20484;-61
2023/05/08 10:30:04;;;;;;;9.97;8.97;;;17.30;99.90;;;;;;5098920;28;20537;-62
2023/05/08 10:32:39;;;;;;;8.73;8.03;;;17.50;99.90;;;;;;5080494;28;20742;-62
2023/05/08 10:35:10;;;;;;;9.97;9.07;;;17.70;99.90;;;;;;5080014;28;20797;-61
2023/05/08 10:37:38;;;;;;;10.70;9.70;;;17.90;99.90;;;;;;5079247;28;20560;-60
2023/05/08 10:40:06;;;;;;;9.60;8.87;;;18.20;93.00;;;;;;5079265;28;20548;-60
2023/05/08 10:42:36;;;;;;;10.77;8.87;;;18.50;36.30;;;;;;5080256;28;20564;-60
2023/05/08 10:45:05;;;;;;;9.37;8.57;;;18.70;13.50;;;;;;5080563;28;20507;-60
2023/05/08 10:47:55;;;;;;;9.40;8.50;;;18.80;1.00;;;;;;5080224;28;20524;-60
2023/05/08 10:50:38;;;;;;;9.03;8.23;;;19.00;1.00;;;;;;5079347;28;20871;-59
2023/05/08 10:53:11;;;;;;;8.60;7.90;;;19.00;1.00;;;;;;5081704;28;20840;-59
2023/05/08 10:55:41;;;;;;;9.80;8.20;;;19.10;1.00;;;;;;5096869;28;20456;-60
2023/05/08 10:58:15;;;;;;;9.17;8.47;;;19.20;1.00;;;;;;5078820;28;20449;-59
2023/05/08 11:01:13;;;;;;;8.83;8.10;;;19.20;1.00;;;;;;5079296;28;20452;-59
2023/05/08 11:03:43;;;;;;;9.10;8.30;;;19.20;1.00;;;;;;5077464;28;20724;-60
2023/05/08 11:06:11;;;;;;;9.67;8.73;;;19.40;1.00;;;;;;5078769;28;20572;-60
2023/05/08 11:08:46;;;;;;;8.97;8.10;;;19.50;1.00;;;;;;5079300;28;20767;-60
2023/05/08 11:11:32;;;;;;;8.33;7.60;;;19.60;1.00;;;;;;5076553;28;20468;-60
2023/05/08 11:14:13;;;;;;;9.03;8.20;;;19.80;1.00;;;;;;5075524;28;20766;-60
2023/05/08 11:17:06;;;;;;;8.57;7.87;;;19.80;1.00;;;;;;5075776;28;20598;-60
2023/05/08 11:19:34;;;;;;;8.63;7.30;;;20.00;1.00;;;;;;5077845;28;20746;-59
2023/05/08 11:22:16;;;;;;;9.10;8.30;;;20.00;1.00;;;;;;5077392;28;20759;-62
2023/05/08 11:24:49;;;;;;;8.93;8.23;;;20.10;1.00;;;;;;5076790;28;20559;-62
2023/05/08 11:27:17;;;;;;;9.10;7.97;;;20.00;1.00;;;;;;5074982;28;20512;-62
2023/05/08 11:30:06;;;;;;;9.53;8.63;;;19.70;1.00;;;;;;5078368;28;20552;-62
2023/05/08 11:33:14;;;;;;;9.03;8.27;;;19.70;1.00;;;;;;5078565;28;20457;-61
2023/05/08 11:35:47;;;;;;;8.10;7.40;;;19.60;1.00;;;;;;5034845;28;20767;-62
2023/05/08 11:38:24;;;;;;;9.10;8.30;;;19.50;1.00;;;;;;5078958;28;20840;-62
2023/05/08 11:40:56;;;;;;;8.17;7.37;;;19.50;1.00;;;;;;5078341;28;20461;-62
2023/05/08 11:43:59;;;;;;;8.47;7.77;;;19.40;1.00;;;;;;5078101;28;20564;-62
2023/05/08 11:46:48;;;;;;;10.80;9.10;;;19.30;1.00;;;;;;5078581;28;20557;-62
2023/05/08 11:49:17;;;;;;;9.50;8.60;;;19.10;1.00;;;;;;5077628;28;20757;-62
2023/05/08 11:51:45;;;;;;;8.87;8.00;;;19.00;1.00;;;;;;5077447;28;20462;-62
2023/05/08 11:54:17;;;;;;;8.60;7.90;;;18.90;1.00;;;;;;5076923;28;20469;-62
2023/05/08 11:56:47;;;;;;;9.67;8.77;;;18.90;1.00;;;;;;5076057;28;20544;-62
2023/05/08 11:59:15;;;;;;;9.13;8.37;;;18.80;1.00;;;;;;5072556;28;20515;-62
2023/05/08 12:01:44;;;;;;;10.27;9.27;;;18.90;1.00;;;;;;5076251;28;20830;-61
2023/05/08 12:04:12;;;;;;;9.43;8.63;;;19.00;1.00;;;;;;5074348;28;20820;-61
2023/05/08 12:06:41;;;;;;;9.57;8.77;;;19.10;1.00;;;;;;5056215;28;20482;-62
2023/05/08 12:09:13;;;;;;;10.77;9.77;;;19.20;1.00;;;;;;5054813;28;20561;-62
2023/05/08 12:11:42;;;;;;;10.47;9.53;;;19.10;1.00;;;;;;5056956;28;20856;-61
2023/05/08 12:14:10;;;;;;;9.50;8.70;;;19.00;1.00;;;;;;5056405;28;20561;-61
2023/05/08 12:16:37;;;;;;;10.73;9.73;;;18.80;1.00;;;;;;5056166;28;20814;-61
2023/05/08 12:19:10;;;;;;;10.03;9.03;;;18.90;29.30;;;;;;5057851;28;20440;-61
2023/05/08 12:21:37;;;;;;;10.13;8.37;;;19.00;41.80;;;;;;5073397;28;20490;-62
2023/05/08 12:24:07;;;;;;;6.93;6.30;;;19.10;33.90;;;;;;5074976;28;20464;-62
2023/05/08 12:26:36;;;;;;;6.30;5.70;;;19.10;37.00;;;;;;5072895;28;20542;-62
2023/05/08 12:29:06;;;;;;;6.07;5.43;;;19.20;1.00;;;;;;5083740;28;20461;-62
2023/05/08 12:31:34;;;;;;;6.93;6.23;;;19.10;1.00;;;;;;5105544;28;20796;-61
2023/05/08 12:34:04;;;;;;;4.93;4.53;;;19.00;1.00;;;;;;5076397;28;20902;-62
2023/05/08 12:36:35;;;;;;;5.63;5.17;;;18.90;1.00;;;;;;5073798;28;20462;-62
2023/05/08 12:39:11;;;;;;;6.20;5.63;;;18.80;1.00;;;;;;5080913;28;20948;-62
2023/05/08 12:41:46;;;;;;;7.37;6.37;;;18.80;20.30;;;;;;5094874;28;20458;-62
2023/05/08 12:44:20;;;;;;;6.13;5.63;;;18.60;19.40;;;;;;5094875;28;20907;-61
2023/05/08 12:46:50;;;;;;;6.50;5.97;;;18.60;70.00;;;;;;5093678;28;20920;-62
2023/05/08 12:49:25;;;;;;;6.60;6.00;;;18.50;38.20;;;;;;5084117;28;20520;-61
2023/05/08 12:52:01;;;;;;;7.43;6.73;;;18.40;58.60;;;;;;5073889;28;20439;-61
2023/05/08 12:54:36;;;;;;;7.60;6.90;;;18.40;89.00;;;;;;5093448;28;20529;-61
2023/05/08 12:57:09;;;;;;;8.10;7.40;;;18.50;99.90;;;;;;5095552;28;20755;-61